Terminal Aerodrome Forecast
Issued by NWS Twin Cities, MN

Home | Current Version | Previous Version | Text Only | Print | Product List | Glossary On
Versions: 1 2 3 4 5 6 7 8 9 10 11 12 13 14 15 16 17 18 19 20
000
FTUS43 KMPX 251700
TAFSTC
TAF
KSTC 251734Z 2518/2618 18005KT P6SM SCT025 OVC040
      TEMPO 2518/2520 BKN025
     FM252300 14004KT P6SM SCT035 OVC080
     FM260700 08005KT 6SM -SN BR BKN025 OVC050
     FM261000 03007KT 2SM -SN BR OVC018
     FM261600 36006KT 4SM -SN OVC012=

USA.gov is the U.S. government's official web portal to all federal, state and local government web resources and services.